sensor_id;sensor_type;location;lat;lon;timestamp;P1;durP1;ratioP1;P2;durP2;ratioP2
12631;SDS011;6381;45.748;12.106;2024-03-07T00:00:19;4.03;;;3.43;;
12631;SDS011;6381;45.748;12.106;2024-03-07T00:02:49;3.63;;;3.00;;
12631;SDS011;6381;45.748;12.106;2024-03-07T00:05:25;4.43;;;3.40;;
12631;SDS011;6381;45.748;12.106;2024-03-07T00:07:55;4.30;;;3.47;;
12631;SDS011;6381;45.748;12.106;2024-03-07T00:10:25;6.13;;;4.10;;
12631;SDS011;6381;45.748;12.106;2024-03-07T00:12:55;5.43;;;3.60;;
12631;SDS011;6381;45.748;12.106;2024-03-07T00:15:25;4.43;;;3.57;;
12631;SDS011;6381;45.748;12.106;2024-03-07T00:17:57;6.17;;;3.97;;
12631;SDS011;6381;45.748;12.106;2024-03-07T00:20:30;3.97;;;3.30;;
12631;SDS011;6381;45.748;12.106;2024-03-07T00:23:00;4.23;;;3.50;;
12631;SDS011;6381;45.748;12.106;2024-03-07T00:25:30;4.20;;;3.43;;
12631;SDS011;6381;45.748;12.106;2024-03-07T00:28:00;4.93;;;3.53;;
12631;SDS011;6381;45.748;12.106;2024-03-07T00:30:31;4.80;;;4.07;;
12631;SDS011;6381;45.748;12.106;2024-03-07T00:33:01;7.07;;;4.77;;
12631;SDS011;6381;45.748;12.106;2024-03-07T00:35:33;10.83;;;6.57;;
12631;SDS011;6381;45.748;12.106;2024-03-07T00:38:03;11.10;;;7.10;;
12631;SDS011;6381;45.748;12.106;2024-03-07T00:40:33;6.87;;;5.27;;
12631;SDS011;6381;45.748;12.106;2024-03-07T00:43:03;5.13;;;4.63;;
12631;SDS011;6381;45.748;12.106;2024-03-07T00:45:33;4.57;;;4.13;;
12631;SDS011;6381;45.748;12.106;2024-03-07T00:48:04;5.67;;;4.20;;
12631;SDS011;6381;45.748;12.106;2024-03-07T00:50:35;5.23;;;4.27;;
12631;SDS011;6381;45.748;12.106;2024-03-07T00:53:05;6.60;;;4.20;;
12631;SDS011;6381;45.748;12.106;2024-03-07T00:55:35;4.83;;;3.83;;
12631;SDS011;6381;45.748;12.106;2024-03-07T00:58:05;7.33;;;4.00;;
12631;SDS011;6381;45.748;12.106;2024-03-07T01:00:35;4.77;;;4.27;;
12631;SDS011;6381;45.748;12.106;2024-03-07T01:03:05;5.20;;;4.70;;
12631;SDS011;6381;45.748;12.106;2024-03-07T01:05:36;5.47;;;4.47;;
12631;SDS011;6381;45.748;12.106;2024-03-07T01:08:06;5.53;;;4.60;;
12631;SDS011;6381;45.748;12.106;2024-03-07T01:10:37;5.10;;;4.30;;
12631;SDS011;6381;45.748;12.106;2024-03-07T01:13:07;5.30;;;4.80;;
12631;SDS011;6381;45.748;12.106;2024-03-07T01:15:46;5.67;;;4.80;;
12631;SDS011;6381;45.748;12.106;2024-03-07T01:18:16;6.67;;;4.60;;
12631;SDS011;6381;45.748;12.106;2024-03-07T01:20:47;5.03;;;4.53;;
12631;SDS011;6381;45.748;12.106;2024-03-07T01:23:18;5.87;;;4.70;;
12631;SDS011;6381;45.748;12.106;2024-03-07T01:25:47;5.83;;;4.50;;
12631;SDS011;6381;45.748;12.106;2024-03-07T01:28:18;5.03;;;4.23;;
12631;SDS011;6381;45.748;12.106;2024-03-07T01:30:49;4.97;;;4.47;;
12631;SDS011;6381;45.748;12.106;2024-03-07T01:33:20;5.03;;;4.30;;
12631;SDS011;6381;45.748;12.106;2024-03-07T01:35:51;6.20;;;4.93;;
12631;SDS011;6381;45.748;12.106;2024-03-07T01:38:21;5.27;;;4.37;;
12631;SDS011;6381;45.748;12.106;2024-03-07T01:40:53;5.27;;;4.20;;
12631;SDS011;6381;45.748;12.106;2024-03-07T01:43:23;5.43;;;4.50;;
12631;SDS011;6381;45.748;12.106;2024-03-07T01:45:53;4.97;;;4.47;;
12631;SDS011;6381;45.748;12.106;2024-03-07T01:48:26;5.50;;;5.00;;
12631;SDS011;6381;45.748;12.106;2024-03-07T01:50:59;6.17;;;5.57;;
12631;SDS011;6381;45.748;12.106;2024-03-07T01:53:31;7.30;;;6.17;;
12631;SDS011;6381;45.748;12.106;2024-03-07T01:56:03;7.33;;;6.63;;
12631;SDS011;6381;45.748;12.106;2024-03-07T01:58:34;7.60;;;6.80;;
12631;SDS011;6381;45.748;12.106;2024-03-07T02:01:05;8.40;;;6.43;;
12631;SDS011;6381;45.748;12.106;2024-03-07T02:03:35;7.30;;;6.60;;
12631;SDS011;6381;45.748;12.106;2024-03-07T02:06:08;7.53;;;6.83;;
12631;SDS011;6381;45.748;12.106;2024-03-07T02:08:38;7.30;;;6.60;;
12631;SDS011;6381;45.748;12.106;2024-03-07T02:11:08;8.27;;;7.33;;
12631;SDS011;6381;45.748;12.106;2024-03-07T02:13:39;7.80;;;7.00;;
12631;SDS011;6381;45.748;12.106;2024-03-07T02:16:09;8.10;;;7.30;;
12631;SDS011;6381;45.748;12.106;2024-03-07T02:18:39;9.70;;;7.43;;
12631;SDS011;6381;45.748;12.106;2024-03-07T02:21:11;9.43;;;7.90;;
12631;SDS011;6381;45.748;12.106;2024-03-07T02:23:41;8.27;;;7.47;;
12631;SDS011;6381;45.748;12.106;2024-03-07T02:26:11;7.97;;;7.17;;
12631;SDS011;6381;45.748;12.106;2024-03-07T02:28:41;8.10;;;7.30;;
12631;SDS011;6381;45.748;12.106;2024-03-07T02:31:11;8.63;;;7.00;;
12631;SDS011;6381;45.748;12.106;2024-03-07T02:33:41;8.07;;;7.27;;
12631;SDS011;6381;45.748;12.106;2024-03-07T02:36:13;7.63;;;6.93;;
12631;SDS011;6381;45.748;12.106;2024-03-07T02:38:43;8.43;;;6.93;;
12631;SDS011;6381;45.748;12.106;2024-03-07T02:41:15;7.57;;;6.57;;
12631;SDS011;6381;45.748;12.106;2024-03-07T02:43:45;7.97;;;7.17;;
12631;SDS011;6381;45.748;12.106;2024-03-07T02:46:14;8.27;;;7.47;;
12631;SDS011;6381;45.748;12.106;2024-03-07T02:48:44;7.83;;;7.07;;
12631;SDS011;6381;45.748;12.106;2024-03-07T02:51:16;8.03;;;7.23;;
12631;SDS011;6381;45.748;12.106;2024-03-07T02:53:47;7.80;;;7.10;;
12631;SDS011;6381;45.748;12.106;2024-03-07T02:56:17;8.13;;;7.33;;
12631;SDS011;6381;45.748;12.106;2024-03-07T02:58:47;7.63;;;6.93;;
12631;SDS011;6381;45.748;12.106;2024-03-07T03:01:17;8.80;;;7.37;;
12631;SDS011;6381;45.748;12.106;2024-03-07T03:03:47;7.40;;;6.73;;
12631;SDS011;6381;45.748;12.106;2024-03-07T03:06:19;7.57;;;6.87;;
12631;SDS011;6381;45.748;12.106;2024-03-07T03:08:49;7.57;;;6.87;;
12631;SDS011;6381;45.748;12.106;2024-03-07T03:11:21;7.33;;;6.70;;
12631;SDS011;6381;45.748;12.106;2024-03-07T03:13:53;6.97;;;5.87;;
12631;SDS011;6381;45.748;12.106;2024-03-07T03:16:23;6.87;;;6.07;;
12631;SDS011;6381;45.748;12.106;2024-03-07T03:19:13;6.80;;;6.07;;
12631;SDS011;6381;45.748;12.106;2024-03-07T03:21:45;6.63;;;6.03;;
12631;SDS011;6381;45.748;12.106;2024-03-07T03:24:14;6.33;;;5.73;;
12631;SDS011;6381;45.748;12.106;2024-03-07T03:26:45;6.53;;;5.30;;
12631;SDS011;6381;45.748;12.106;2024-03-07T03:29:14;6.43;;;5.60;;
12631;SDS011;6381;45.748;12.106;2024-03-07T03:31:46;5.97;;;5.33;;
12631;SDS011;6381;45.748;12.106;2024-03-07T03:34:16;6.87;;;5.27;;
12631;SDS011;6381;45.748;12.106;2024-03-07T03:36:48;5.90;;;5.30;;
12631;SDS011;6381;45.748;12.106;2024-03-07T03:39:18;6.77;;;5.63;;
12631;SDS011;6381;45.748;12.106;2024-03-07T03:41:48;5.83;;;5.33;;
12631;SDS011;6381;45.748;12.106;2024-03-07T03:44:18;5.77;;;5.17;;
12631;SDS011;6381;45.748;12.106;2024-03-07T03:46:48;7.97;;;5.23;;
12631;SDS011;6381;45.748;12.106;2024-03-07T03:49:18;6.17;;;5.57;;
12631;SDS011;6381;45.748;12.106;2024-03-07T03:51:49;6.60;;;5.97;;
12631;SDS011;6381;45.748;12.106;2024-03-07T03:54:20;5.93;;;5.40;;
12631;SDS011;6381;45.748;12.106;2024-03-07T03:56:50;5.60;;;5.10;;
12631;SDS011;6381;45.748;12.106;2024-03-07T03:59:20;6.20;;;5.60;;
12631;SDS011;6381;45.748;12.106;2024-03-07T04:01:50;6.80;;;5.60;;
12631;SDS011;6381;45.748;12.106;2024-03-07T04:04:19;5.90;;;5.30;;
12631;SDS011;6381;45.748;12.106;2024-03-07T04:06:52;6.60;;;5.67;;
12631;SDS011;6381;45.748;12.106;2024-03-07T04:09:21;6.10;;;5.50;;
12631;SDS011;6381;45.748;12.106;2024-03-07T04:11:56;6.37;;;5.77;;
12631;SDS011;6381;45.748;12.106;2024-03-07T04:14:26;6.13;;;5.50;;
12631;SDS011;6381;45.748;12.106;2024-03-07T04:17:00;6.63;;;5.83;;
12631;SDS011;6381;45.748;12.106;2024-03-07T04:19:29;6.50;;;5.80;;
12631;SDS011;6381;45.748;12.106;2024-03-07T04:22:01;6.07;;;5.57;;
12631;SDS011;6381;45.748;12.106;2024-03-07T04:24:32;6.47;;;5.30;;
12631;SDS011;6381;45.748;12.106;2024-03-07T04:27:02;6.40;;;5.63;;
12631;SDS011;6381;45.748;12.106;2024-03-07T04:29:33;6.87;;;6.17;;
12631;SDS011;6381;45.748;12.106;2024-03-07T04:32:04;7.67;;;5.83;;
12631;SDS011;6381;45.748;12.106;2024-03-07T04:34:36;7.33;;;6.43;;
12631;SDS011;6381;45.748;12.106;2024-03-07T04:37:08;8.00;;;6.77;;
12631;SDS011;6381;45.748;12.106;2024-03-07T04:39:38;8.50;;;6.43;;
12631;SDS011;6381;45.748;12.106;2024-03-07T04:42:08;7.90;;;7.10;;
12631;SDS011;6381;45.748;12.106;2024-03-07T04:44:38;6.67;;;6.07;;
12631;SDS011;6381;45.748;12.106;2024-03-07T04:47:08;7.27;;;6.57;;
12631;SDS011;6381;45.748;12.106;2024-03-07T04:49:39;7.47;;;6.77;;
12631;SDS011;6381;45.748;12.106;2024-03-07T04:52:12;6.90;;;6.17;;
12631;SDS011;6381;45.748;12.106;2024-03-07T04:54:42;9.00;;;6.93;;
12631;SDS011;6381;45.748;12.106;2024-03-07T04:57:12;8.10;;;7.30;;
12631;SDS011;6381;45.748;12.106;2024-03-07T04:59:42;8.07;;;7.07;;
12631;SDS011;6381;45.748;12.106;2024-03-07T05:02:12;14.43;;;9.63;;
12631;SDS011;6381;45.748;12.106;2024-03-07T05:04:42;14.90;;;8.83;;
12631;SDS011;6381;45.748;12.106;2024-03-07T05:07:14;12.87;;;8.57;;
12631;SDS011;6381;45.748;12.106;2024-03-07T05:09:45;12.50;;;8.03;;
12631;SDS011;6381;45.748;12.106;2024-03-07T05:12:16;8.37;;;6.83;;
12631;SDS011;6381;45.748;12.106;2024-03-07T05:14:46;8.43;;;7.20;;
12631;SDS011;6381;45.748;12.106;2024-03-07T05:17:15;9.70;;;7.90;;
12631;SDS011;6381;45.748;12.106;2024-03-07T05:19:47;9.77;;;8.53;;
12631;SDS011;6381;45.748;12.106;2024-03-07T05:22:18;10.10;;;9.10;;
12631;SDS011;6381;45.748;12.106;2024-03-07T05:24:52;10.20;;;9.20;;
12631;SDS011;6381;45.748;12.106;2024-03-07T05:27:24;9.37;;;8.10;;
12631;SDS011;6381;45.748;12.106;2024-03-07T05:29:55;9.47;;;8.57;;
12631;SDS011;6381;45.748;12.106;2024-03-07T05:32:25;9.97;;;7.80;;
12631;SDS011;6381;45.748;12.106;2024-03-07T05:34:56;8.73;;;7.60;;
12631;SDS011;6381;45.748;12.106;2024-03-07T05:37:27;8.67;;;7.83;;
12631;SDS011;6381;45.748;12.106;2024-03-07T05:39:57;8.87;;;7.97;;
12631;SDS011;6381;45.748;12.106;2024-03-07T05:42:27;9.20;;;8.30;;
12631;SDS011;6381;45.748;12.106;2024-03-07T05:44:57;11.07;;;9.83;;
12631;SDS011;6381;45.748;12.106;2024-03-07T05:47:27;13.70;;;12.30;;
12631;SDS011;6381;45.748;12.106;2024-03-07T05:49:57;12.83;;;11.47;;
12631;SDS011;6381;45.748;12.106;2024-03-07T05:52:29;12.73;;;11.43;;
12631;SDS011;6381;45.748;12.106;2024-03-07T05:54:59;10.70;;;9.60;;
12631;SDS011;6381;45.748;12.106;2024-03-07T05:57:29;10.30;;;9.30;;
12631;SDS011;6381;45.748;12.106;2024-03-07T05:59:59;11.50;;;8.67;;
12631;SDS011;6381;45.748;12.106;2024-03-07T06:02:37;11.60;;;8.30;;
12631;SDS011;6381;45.748;12.106;2024-03-07T06:05:08;8.87;;;7.97;;
12631;SDS011;6381;45.748;12.106;2024-03-07T06:07:45;9.97;;;8.73;;
12631;SDS011;6381;45.748;12.106;2024-03-07T06:10:16;9.77;;;8.70;;
12631;SDS011;6381;45.748;12.106;2024-03-07T06:12:46;9.73;;;8.73;;
12631;SDS011;6381;45.748;12.106;2024-03-07T06:15:36;11.17;;;8.53;;
12631;SDS011;6381;45.748;12.106;2024-03-07T06:18:07;13.80;;;11.00;;
12631;SDS011;6381;45.748;12.106;2024-03-07T06:20:41;15.80;;;12.47;;
12631;SDS011;6381;45.748;12.106;2024-03-07T06:23:13;13.73;;;11.27;;
12631;SDS011;6381;45.748;12.106;2024-03-07T06:25:44;15.00;;;10.23;;
12631;SDS011;6381;45.748;12.106;2024-03-07T06:28:18;12.97;;;10.30;;
12631;SDS011;6381;45.748;12.106;2024-03-07T06:30:48;19.47;;;14.67;;
12631;SDS011;6381;45.748;12.106;2024-03-07T06:33:18;16.33;;;13.33;;
12631;SDS011;6381;45.748;12.106;2024-03-07T06:35:52;15.97;;;12.40;;
12631;SDS011;6381;45.748;12.106;2024-03-07T06:38:25;13.57;;;11.53;;
12631;SDS011;6381;45.748;12.106;2024-03-07T06:40:56;14.30;;;11.87;;
12631;SDS011;6381;45.748;12.106;2024-03-07T06:43:26;14.27;;;11.80;;
12631;SDS011;6381;45.748;12.106;2024-03-07T06:45:56;18.20;;;14.30;;
12631;SDS011;6381;45.748;12.106;2024-03-07T06:48:26;15.37;;;13.77;;
12631;SDS011;6381;45.748;12.106;2024-03-07T06:50:56;20.83;;;16.47;;
12631;SDS011;6381;45.748;12.106;2024-03-07T06:53:28;24.83;;;19.40;;
12631;SDS011;6381;45.748;12.106;2024-03-07T06:55:58;23.10;;;17.97;;
12631;SDS011;6381;45.748;12.106;2024-03-07T06:58:29;18.33;;;14.73;;
12631;SDS011;6381;45.748;12.106;2024-03-07T07:01:00;14.50;;;12.90;;
12631;SDS011;6381;45.748;12.106;2024-03-07T07:03:34;15.53;;;13.20;;
12631;SDS011;6381;45.748;12.106;2024-03-07T07:06:04;14.83;;;12.83;;
12631;SDS011;6381;45.748;12.106;2024-03-07T07:08:36;16.77;;;13.53;;
12631;SDS011;6381;45.748;12.106;2024-03-07T07:11:07;19.40;;;15.53;;
12631;SDS011;6381;45.748;12.106;2024-03-07T07:13:39;17.90;;;15.20;;
12631;SDS011;6381;45.748;12.106;2024-03-07T07:16:09;20.93;;;16.90;;
12631;SDS011;6381;45.748;12.106;2024-03-07T07:18:40;18.80;;;15.33;;
12631;SDS011;6381;45.748;12.106;2024-03-07T07:21:10;14.87;;;11.73;;
12631;SDS011;6381;45.748;12.106;2024-03-07T07:23:45;14.70;;;12.67;;
12631;SDS011;6381;45.748;12.106;2024-03-07T07:26:15;16.47;;;14.07;;
12631;SDS011;6381;45.748;12.106;2024-03-07T07:28:44;17.47;;;14.70;;
12631;SDS011;6381;45.748;12.106;2024-03-07T07:31:14;16.70;;;14.00;;
12631;SDS011;6381;45.748;12.106;2024-03-07T07:33:44;17.63;;;14.80;;
12631;SDS011;6381;45.748;12.106;2024-03-07T07:36:14;20.13;;;15.33;;
12631;SDS011;6381;45.748;12.106;2024-03-07T07:38:47;16.97;;;14.50;;
12631;SDS011;6381;45.748;12.106;2024-03-07T07:41:17;20.37;;;18.00;;
12631;SDS011;6381;45.748;12.106;2024-03-07T07:43:48;20.03;;;17.63;;
12631;SDS011;6381;45.748;12.106;2024-03-07T07:46:18;20.77;;;15.90;;
12631;SDS011;6381;45.748;12.106;2024-03-07T07:48:49;19.83;;;16.00;;
12631;SDS011;6381;45.748;12.106;2024-03-07T07:51:19;21.80;;;17.03;;
12631;SDS011;6381;45.748;12.106;2024-03-07T07:53:51;20.40;;;17.03;;
12631;SDS011;6381;45.748;12.106;2024-03-07T07:56:22;22.00;;;17.50;;
12631;SDS011;6381;45.748;12.106;2024-03-07T07:58:53;20.70;;;16.90;;
12631;SDS011;6381;45.748;12.106;2024-03-07T08:01:23;18.03;;;15.23;;
12631;SDS011;6381;45.748;12.106;2024-03-07T08:03:53;19.87;;;16.93;;
12631;SDS011;6381;45.748;12.106;2024-03-07T08:06:23;17.87;;;15.47;;
12631;SDS011;6381;45.748;12.106;2024-03-07T08:08:54;17.93;;;15.80;;
12631;SDS011;6381;45.748;12.106;2024-03-07T08:11:24;20.00;;;17.10;;
12631;SDS011;6381;45.748;12.106;2024-03-07T08:13:55;23.87;;;18.17;;
12631;SDS011;6381;45.748;12.106;2024-03-07T08:16:25;27.30;;;20.30;;
12631;SDS011;6381;45.748;12.106;2024-03-07T08:18:55;22.57;;;19.37;;
12631;SDS011;6381;45.748;12.106;2024-03-07T08:21:25;21.97;;;18.33;;
12631;SDS011;6381;45.748;12.106;2024-03-07T08:23:57;18.97;;;16.90;;
12631;SDS011;6381;45.748;12.106;2024-03-07T08:26:31;20.90;;;18.27;;
12631;SDS011;6381;45.748;12.106;2024-03-07T08:29:01;19.93;;;16.10;;
12631;SDS011;6381;45.748;12.106;2024-03-07T08:31:41;20.30;;;17.47;;
12631;SDS011;6381;45.748;12.106;2024-03-07T08:34:11;19.07;;;16.13;;
12631;SDS011;6381;45.748;12.106;2024-03-07T08:36:42;16.87;;;14.17;;
12631;SDS011;6381;45.748;12.106;2024-03-07T08:39:14;16.57;;;12.97;;
12631;SDS011;6381;45.748;12.106;2024-03-07T08:41:46;17.60;;;15.73;;
12631;SDS011;6381;45.748;12.106;2024-03-07T08:44:17;19.30;;;17.20;;
12631;SDS011;6381;45.748;12.106;2024-03-07T08:46:48;18.13;;;15.10;;
12631;SDS011;6381;45.748;12.106;2024-03-07T08:49:18;24.93;;;19.53;;
12631;SDS011;6381;45.748;12.106;2024-03-07T08:51:48;21.30;;;17.53;;
12631;SDS011;6381;45.748;12.106;2024-03-07T08:54:19;17.67;;;13.03;;
12631;SDS011;6381;45.748;12.106;2024-03-07T08:56:49;14.07;;;11.80;;
12631;SDS011;6381;45.748;12.106;2024-03-07T08:59:19;14.43;;;12.53;;
12631;SDS011;6381;45.748;12.106;2024-03-07T09:01:51;13.73;;;10.07;;
12631;SDS011;6381;45.748;12.106;2024-03-07T09:04:21;13.97;;;9.57;;
12631;SDS011;6381;45.748;12.106;2024-03-07T09:06:51;8.80;;;7.27;;
12631;SDS011;6381;45.748;12.106;2024-03-07T09:09:21;7.10;;;6.13;;
12631;SDS011;6381;45.748;12.106;2024-03-07T09:11:52;7.37;;;5.57;;
12631;SDS011;6381;45.748;12.106;2024-03-07T09:14:22;6.67;;;5.97;;
12631;SDS011;6381;45.748;12.106;2024-03-07T09:16:54;6.57;;;5.63;;
12631;SDS011;6381;45.748;12.106;2024-03-07T09:19:24;6.10;;;5.50;;
12631;SDS011;6381;45.748;12.106;2024-03-07T09:21:55;5.20;;;4.70;;
12631;SDS011;6381;45.748;12.106;2024-03-07T09:24:25;6.00;;;4.77;;
12631;SDS011;6381;45.748;12.106;2024-03-07T09:26:56;6.90;;;5.30;;
12631;SDS011;6381;45.748;12.106;2024-03-07T09:29:26;5.30;;;4.03;;
12631;SDS011;6381;45.748;12.106;2024-03-07T09:31:58;5.40;;;4.63;;
12631;SDS011;6381;45.748;12.106;2024-03-07T09:34:29;6.20;;;5.60;;
12631;SDS011;6381;45.748;12.106;2024-03-07T09:37:00;7.37;;;5.33;;
12631;SDS011;6381;45.748;12.106;2024-03-07T09:39:29;5.23;;;4.73;;
12631;SDS011;6381;45.748;12.106;2024-03-07T09:42:00;4.70;;;4.30;;
12631;SDS011;6381;45.748;12.106;2024-03-07T09:44:30;4.67;;;4.27;;
12631;SDS011;6381;45.748;12.106;2024-03-07T09:47:05;5.10;;;4.40;;
12631;SDS011;6381;45.748;12.106;2024-03-07T09:49:36;4.20;;;3.80;;
12631;SDS011;6381;45.748;12.106;2024-03-07T09:52:07;4.77;;;4.10;;
12631;SDS011;6381;45.748;12.106;2024-03-07T09:54:39;4.47;;;4.07;;
12631;SDS011;6381;45.748;12.106;2024-03-07T09:57:09;5.23;;;4.00;;
12631;SDS011;6381;45.748;12.106;2024-03-07T09:59:40;5.00;;;4.50;;
12631;SDS011;6381;45.748;12.106;2024-03-07T10:02:16;4.93;;;4.43;;
12631;SDS011;6381;45.748;12.106;2024-03-07T10:04:48;6.40;;;4.20;;
12631;SDS011;6381;45.748;12.106;2024-03-07T10:07:22;4.67;;;4.17;;
12631;SDS011;6381;45.748;12.106;2024-03-07T10:09:54;7.40;;;6.30;;
12631;SDS011;6381;45.748;12.106;2024-03-07T10:12:27;6.73;;;5.63;;
12631;SDS011;6381;45.748;12.106;2024-03-07T10:15:02;5.90;;;5.30;;
12631;SDS011;6381;45.748;12.106;2024-03-07T10:17:34;8.47;;;5.87;;
12631;SDS011;6381;45.748;12.106;2024-03-07T10:20:05;7.27;;;6.20;;
12631;SDS011;6381;45.748;12.106;2024-03-07T10:22:41;8.13;;;6.87;;
12631;SDS011;6381;45.748;12.106;2024-03-07T10:25:13;8.07;;;7.27;;
12631;SDS011;6381;45.748;12.106;2024-03-07T10:27:45;8.27;;;7.47;;
12631;SDS011;6381;45.748;12.106;2024-03-07T10:30:17;11.37;;;9.33;;
12631;SDS011;6381;45.748;12.106;2024-03-07T10:32:54;11.77;;;9.33;;
12631;SDS011;6381;45.748;12.106;2024-03-07T10:35:29;9.33;;;8.13;;
12631;SDS011;6381;45.748;12.106;2024-03-07T10:37:59;7.90;;;7.00;;
12631;SDS011;6381;45.748;12.106;2024-03-07T10:40:34;11.60;;;9.40;;
12631;SDS011;6381;45.748;12.106;2024-03-07T10:43:11;9.93;;;8.63;;
12631;SDS011;6381;45.748;12.106;2024-03-07T10:45:43;10.20;;;9.10;;
12631;SDS011;6381;45.748;12.106;2024-03-07T10:48:18;9.50;;;8.20;;
12631;SDS011;6381;45.748;12.106;2024-03-07T10:50:54;12.03;;;9.10;;
12631;SDS011;6381;45.748;12.106;2024-03-07T10:53:37;12.70;;;10.00;;
12631;SDS011;6381;45.748;12.106;2024-03-07T10:56:18;12.17;;;10.07;;
12631;SDS011;6381;45.748;12.106;2024-03-07T10:58:58;15.70;;;11.13;;
12631;SDS011;6381;45.748;12.106;2024-03-07T11:01:39;11.53;;;10.30;;
12631;SDS011;6381;45.748;12.106;2024-03-07T11:04:21;11.77;;;10.53;;
12631;SDS011;6381;45.748;12.106;2024-03-07T11:06:53;10.70;;;9.50;;
12631;SDS011;6381;45.748;12.106;2024-03-07T11:09:23;11.93;;;9.70;;
12631;SDS011;6381;45.748;12.106;2024-03-07T11:11:56;10.50;;;8.70;;
12631;SDS011;6381;45.748;12.106;2024-03-07T11:14:31;13.47;;;10.87;;
12631;SDS011;6381;45.748;12.106;2024-03-07T11:17:03;9.40;;;7.37;;
12631;SDS011;6381;45.748;12.106;2024-03-07T11:19:35;7.30;;;6.03;;
12631;SDS011;6381;45.748;12.106;2024-03-07T11:22:07;8.07;;;6.23;;
12631;SDS011;6381;45.748;12.106;2024-03-07T11:24:43;8.23;;;6.50;;
12631;SDS011;6381;45.748;12.106;2024-03-07T11:27:15;6.27;;;5.47;;
12631;SDS011;6381;45.748;12.106;2024-03-07T11:29:48;5.83;;;5.27;;
12631;SDS011;6381;45.748;12.106;2024-03-07T11:32:22;4.97;;;4.37;;
12631;SDS011;6381;45.748;12.106;2024-03-07T11:34:55;6.53;;;5.03;;
12631;SDS011;6381;45.748;12.106;2024-03-07T11:37:38;6.10;;;4.90;;
12631;SDS011;6381;45.748;12.106;2024-03-07T11:40:11;6.10;;;5.50;;
12631;SDS011;6381;45.748;12.106;2024-03-07T11:42:48;7.90;;;6.67;;
12631;SDS011;6381;45.748;12.106;2024-03-07T11:45:19;6.30;;;5.70;;
12631;SDS011;6381;45.748;12.106;2024-03-07T11:47:54;6.13;;;4.27;;
12631;SDS011;6381;45.748;12.106;2024-03-07T11:50:30;6.60;;;4.13;;
12631;SDS011;6381;45.748;12.106;2024-03-07T11:53:02;6.37;;;5.43;;
12631;SDS011;6381;45.748;12.106;2024-03-07T11:55:34;6.57;;;5.73;;
12631;SDS011;6381;45.748;12.106;2024-03-07T11:58:13;17.57;;;11.83;;
12631;SDS011;6381;45.748;12.106;2024-03-07T12:00:44;27.40;;;17.10;;
12631;SDS011;6381;45.748;12.106;2024-03-07T12:03:14;23.57;;;14.13;;
12631;SDS011;6381;45.748;12.106;2024-03-07T12:05:48;29.90;;;20.47;;
12631;SDS011;6381;45.748;12.106;2024-03-07T12:08:20;11.73;;;8.77;;
12631;SDS011;6381;45.748;12.106;2024-03-07T12:10:53;9.23;;;7.90;;
12631;SDS011;6381;45.748;12.106;2024-03-07T12:13:29;6.37;;;5.67;;
12631;SDS011;6381;45.748;12.106;2024-03-07T12:16:00;9.10;;;6.23;;
12631;SDS011;6381;45.748;12.106;2024-03-07T12:18:32;7.07;;;6.20;;
12631;SDS011;6381;45.748;12.106;2024-03-07T12:21:05;6.73;;;6.07;;
12631;SDS011;6381;45.748;12.106;2024-03-07T12:23:38;8.47;;;6.83;;
12631;SDS011;6381;45.748;12.106;2024-03-07T12:26:11;9.13;;;6.83;;
12631;SDS011;6381;45.748;12.106;2024-03-07T12:28:52;8.07;;;7.10;;
12631;SDS011;6381;45.748;12.106;2024-03-07T12:31:24;9.50;;;7.97;;
12631;SDS011;6381;45.748;12.106;2024-03-07T12:33:54;8.53;;;6.93;;
12631;SDS011;6381;45.748;12.106;2024-03-07T12:36:27;7.90;;;7.10;;
12631;SDS011;6381;45.748;12.106;2024-03-07T12:39:01;10.53;;;7.70;;
12631;SDS011;6381;45.748;12.106;2024-03-07T12:41:51;8.53;;;7.37;;
12631;SDS011;6381;45.748;12.106;2024-03-07T12:44:22;10.00;;;8.47;;
12631;SDS011;6381;45.748;12.106;2024-03-07T12:46:53;7.67;;;6.80;;
12631;SDS011;6381;45.748;12.106;2024-03-07T12:49:24;6.87;;;5.97;;
12631;SDS011;6381;45.748;12.106;2024-03-07T12:51:56;6.90;;;6.20;;
12631;SDS011;6381;45.748;12.106;2024-03-07T12:54:26;6.97;;;5.97;;
12631;SDS011;6381;45.748;12.106;2024-03-07T12:56:59;7.10;;;5.77;;
12631;SDS011;6381;45.748;12.106;2024-03-07T12:59:33;6.17;;;4.70;;
12631;SDS011;6381;45.748;12.106;2024-03-07T13:02:04;6.17;;;5.53;;
12631;SDS011;6381;45.748;12.106;2024-03-07T13:04:38;8.83;;;5.77;;
12631;SDS011;6381;45.748;12.106;2024-03-07T13:07:12;6.60;;;5.73;;
12631;SDS011;6381;45.748;12.106;2024-03-07T13:09:43;7.03;;;5.13;;
12631;SDS011;6381;45.748;12.106;2024-03-07T13:12:15;8.23;;;6.40;;
12631;SDS011;6381;45.748;12.106;2024-03-07T13:14:48;8.23;;;6.00;;
12631;SDS011;6381;45.748;12.106;2024-03-07T13:17:19;13.07;;;7.30;;
12631;SDS011;6381;45.748;12.106;2024-03-07T13:19:53;8.10;;;6.07;;
12631;SDS011;6381;45.748;12.106;2024-03-07T13:22:29;10.17;;;6.33;;
12631;SDS011;6381;45.748;12.106;2024-03-07T13:25:00;10.03;;;6.50;;
12631;SDS011;6381;45.748;12.106;2024-03-07T13:27:43;8.77;;;6.07;;
12631;SDS011;6381;45.748;12.106;2024-03-07T13:30:24;6.27;;;5.23;;
12631;SDS011;6381;45.748;12.106;2024-03-07T13:32:56;6.63;;;5.77;;
12631;SDS011;6381;45.748;12.106;2024-03-07T13:35:28;9.10;;;6.68;;
12631;SDS011;6381;45.748;12.106;2024-03-07T13:38:01;5.57;;;4.68;;
12631;SDS011;6381;45.748;12.106;2024-03-07T13:40:35;5.53;;;4.68;;
12631;SDS011;6381;45.748;12.106;2024-03-07T13:43:06;5.18;;;4.55;;
12631;SDS011;6381;45.748;12.106;2024-03-07T13:45:36;4.68;;;3.80;;
12631;SDS011;6381;45.748;12.106;2024-03-07T13:48:09;6.18;;;4.32;;
12631;SDS011;6381;45.748;12.106;2024-03-07T13:50:41;7.32;;;4.60;;
12631;SDS011;6381;45.748;12.106;2024-03-07T13:53:28;4.78;;;4.10;;
12631;SDS011;6381;45.748;12.106;2024-03-07T14:02:11;4.93;;;4.07;;
12631;SDS011;6381;45.748;12.106;2024-03-07T14:08:49;5.57;;;4.27;;
12631;SDS011;6381;45.748;12.106;2024-03-07T14:18:24;5.37;;;4.30;;
12631;SDS011;6381;45.748;12.106;2024-03-07T14:21:43;4.83;;;4.10;;
12631;SDS011;6381;45.748;12.106;2024-03-07T14:24:32;3.67;;;2.63;;
12631;SDS011;6381;45.748;12.106;2024-03-07T14:27:26;3.77;;;3.23;;
12631;SDS011;6381;45.748;12.106;2024-03-07T14:33:08;4.57;;;3.27;;
12631;SDS011;6381;45.748;12.106;2024-03-07T14:38:30;4.57;;;3.70;;
12631;SDS011;6381;45.748;12.106;2024-03-07T14:41:17;5.57;;;3.70;;
12631;SDS011;6381;45.748;12.106;2024-03-07T14:43:50;4.33;;;3.60;;
12631;SDS011;6381;45.748;12.106;2024-03-07T14:46:20;5.23;;;4.00;;
12631;SDS011;6381;45.748;12.106;2024-03-07T14:48:51;4.90;;;4.00;;
12631;SDS011;6381;45.748;12.106;2024-03-07T14:51:20;5.30;;;4.43;;
12631;SDS011;6381;45.748;12.106;2024-03-07T14:53:51;4.60;;;4.00;;
12631;SDS011;6381;45.748;12.106;2024-03-07T14:56:23;4.87;;;3.73;;
12631;SDS011;6381;45.748;12.106;2024-03-07T14:58:55;5.53;;;4.03;;
12631;SDS011;6381;45.748;12.106;2024-03-07T15:01:25;5.30;;;4.23;;
12631;SDS011;6381;45.748;12.106;2024-03-07T15:03:58;6.23;;;5.17;;
12631;SDS011;6381;45.748;12.106;2024-03-07T15:06:34;6.83;;;5.13;;
12631;SDS011;6381;45.748;12.106;2024-03-07T15:09:04;5.50;;;4.73;;
12631;SDS011;6381;45.748;12.106;2024-03-07T15:11:38;6.30;;;4.93;;
12631;SDS011;6381;45.748;12.106;2024-03-07T15:14:13;7.83;;;6.20;;
12631;SDS011;6381;45.748;12.106;2024-03-07T15:16:59;7.20;;;5.73;;
12631;SDS011;6381;45.748;12.106;2024-03-07T15:19:33;6.03;;;4.93;;
12631;SDS011;6381;45.748;12.106;2024-03-07T15:22:04;10.93;;;7.47;;
12631;SDS011;6381;45.748;12.106;2024-03-07T15:24:35;8.90;;;6.80;;
12631;SDS011;6381;45.748;12.106;2024-03-07T15:27:13;11.67;;;8.93;;
12631;SDS011;6381;45.748;12.106;2024-03-07T15:29:44;11.93;;;9.80;;
12631;SDS011;6381;45.748;12.106;2024-03-07T15:32:18;10.57;;;9.07;;